Time;durP1;ratioP1;P1;durP2;ratioP2;P2;SDS_P1;SDS_P2;PMS_P1;PMS_P2;Temp;Humidity;BMP_temperature;BMP_pressure;BME280_temperature;BME280_humidity;BME280_pressure;Samples;Min_cycle;Max_cycle;Signal;HPM_P1;HPM_P2
2023/03/30 00:11:01;;;;;;;;;;;5.50;99.90;;;;;;4942452;28;19929;-77
2023/03/30 00:51:50;;;;;;;;;;;5.60;99.90;;;;;;4845524;29;19947;-80
2023/03/30 00:57:29;;;;;;;;;;;5.50;99.90;;;;;;4845098;29;20004;-80
2023/03/30 01:03:21;;;;;;;;;;;5.50;99.90;;;;;;4825681;29;19923;-81
2023/03/30 01:06:39;;;;;;;;;;;5.40;99.90;;;;;;4837002;29;19931;-78
2023/03/30 01:09:30;;;;;;;;;;;5.40;99.90;;;;;;4850920;29;19922;-77
2023/03/30 01:31:28;;;;;;;;;;;6.10;99.90;;;;;;4893473;29;19918;-80
2023/03/30 01:35:33;;;;;;;;;;;6.10;99.90;;;;;;4917269;28;19989;-80
2023/03/30 01:37:33;;;;;;;;;;;6.20;99.90;;;;;;4872273;29;19917;-80
2023/03/30 01:40:05;;;;;;;;;;;6.20;99.90;;;;;;4894122;29;19910;-80
2023/03/30 01:42:42;;;;;;;;;;;6.30;99.90;;;;;;4980427;28;19916;-80
2023/03/30 01:51:28;;;;;;;;;;;6.40;99.90;;;;;;5012466;28;19955;-77
2023/03/30 01:54:12;;;;;;;;;;;6.50;99.90;;;;;;5022619;28;19956;-80
2023/03/30 02:00:26;;;;;;;;;;;6.50;99.90;;;;;;5021028;28;19919;-77
2023/03/30 02:03:09;;;;;;;;;;;6.40;99.90;;;;;;5006772;28;19942;-80
2023/03/30 02:06:26;;;;;;;;;;;;;;;;;;;;;
2023/03/30 02:08:38;;;;;;;;;;;6.40;99.90;;;;;;5010901;28;19905;-80
2023/03/30 02:17:30;;;;;;;;;;;6.40;99.90;;;;;;4934924;28;19917;-80
2023/03/30 02:20:00;;;;;;;;;;;6.40;99.90;;;;;;4931334;28;19922;-80
2023/03/30 02:22:36;;;;;;;;;;;6.50;99.90;;;;;;4939558;28;20876;-80
2023/03/30 02:25:04;;;;;;;;;;;6.40;99.90;;;;;;5012124;28;19913;-80
2023/03/30 02:27:58;;;;;;;;;;;6.40;99.90;;;;;;5029339;28;19913;-80
2023/03/30 02:31:23;;;;;;;;;;;6.40;99.90;;;;;;5017109;28;20016;-78
2023/03/30 02:34:16;;;;;;;;;;;6.40;99.90;;;;;;5005986;28;19905;-78
2023/03/30 02:37:17;;;;;;;;;;;;;;;;;;;;;
2023/03/30 02:40:25;;;;;;;;;;;6.20;99.90;;;;;;5008680;28;19905;-78
2023/03/30 02:43:13;;;;;;;;;;;6.20;99.90;;;;;;5027678;28;19905;-80
2023/03/30 02:45:58;;;;;;;;;;;6.10;99.90;;;;;;5013832;28;19909;-80
2023/03/30 02:51:13;;;;;;;;;;;6.00;99.90;;;;;;5011632;28;19913;-80
2023/03/30 02:53:48;;;;;;;;;;;6.00;99.90;;;;;;5009899;28;19905;-80
2023/03/30 02:56:15;;;;;;;;;;;6.00;99.90;;;;;;4998386;28;19913;-80
2023/03/30 02:59:05;;;;;;;;;;;6.00;99.90;;;;;;5013905;28;19905;-80
2023/03/30 03:04:34;;;;;;;;;;;6.10;99.90;;;;;;5023245;28;19936;-80
2023/03/30 03:07:01;;;;;;;;;;;6.10;99.90;;;;;;5020313;28;19988;-80
2023/03/30 03:09:29;;;;;;;;;;;6.10;99.90;;;;;;5022772;28;19920;-80
2023/03/30 03:12:02;;;;;;;;;;;6.10;99.90;;;;;;5013593;28;19951;-80
2023/03/30 03:14:29;;;;;;;;;;;6.00;99.90;;;;;;4990218;28;19909;-80
2023/03/30 03:16:55;;;;;;;;;;;6.00;99.90;;;;;;5024425;28;19920;-80
2023/03/30 03:19:29;;;;;;;;;;;6.00;99.90;;;;;;5015213;28;20033;-80
2023/03/30 03:21:55;;;;;;;;;;;6.00;99.90;;;;;;4996774;28;19909;-80
2023/03/30 03:24:20;;;;;;;;;;;5.90;99.90;;;;;;5017341;28;19913;-80
2023/03/30 03:26:47;;;;;;;;;;;5.90;99.90;;;;;;4991299;28;19988;-81
2023/03/30 03:29:45;;;;;;;;;;;5.90;99.90;;;;;;5006264;28;20510;-81
2023/03/30 03:32:18;;;;;;;;;;;5.90;99.90;;;;;;5002909;28;19905;-80
2023/03/30 03:34:44;;;;;;;;;;;5.90;99.90;;;;;;5026741;28;19909;-80
2023/03/30 03:37:16;;;;;;;;;;;5.90;99.90;;;;;;5016227;28;19908;-81
2023/03/30 03:40:05;;;;;;;;;;;5.90;99.90;;;;;;5017846;28;20263;-80
2023/03/30 03:42:35;;;;;;;;;;;5.80;99.90;;;;;;5013220;28;19994;-80
2023/03/30 03:45:04;;;;;;;;;;;5.80;99.90;;;;;;5025311;28;19909;-80
2023/03/30 03:47:33;;;;;;;;;;;5.80;99.90;;;;;;5022266;28;20361;-81
2023/03/30 03:53:25;;;;;;;;;;;;;;;;;;;;;
2023/03/30 03:56:02;;;;;;;;;;;5.90;99.90;;;;;;5024205;28;19905;-78
2023/03/30 03:58:59;;;;;;;;;;;5.90;99.90;;;;;;5015437;28;19909;-78
2023/03/30 04:07:45;;;;;;;;;;;6.00;99.90;;;;;;5010843;28;20270;-81
2023/03/30 04:10:25;;;;;;;;;;;6.00;99.90;;;;;;5012039;28;19913;-81
2023/03/30 04:13:10;;;;;;;;;;;6.00;99.90;;;;;;5020901;28;19912;-81
2023/03/30 04:16:16;;;;;;;;;;;6.00;99.90;;;;;;5027559;28;19928;-78
2023/03/30 04:18:49;;;;;;;;;;;6.00;99.90;;;;;;5025681;28;19909;-81
2023/03/30 04:21:57;;;;;;;;;;;6.00;99.90;;;;;;5021868;28;19905;-81
2023/03/30 04:25:08;;;;;;;;;;;;;;;;;;;;;
2023/03/30 04:28:07;;;;;;;;;;;6.00;99.90;;;;;;5018970;28;20512;-78
2023/03/30 04:30:49;;;;;;;;;;;6.00;99.90;;;;;;5006731;28;19906;-81
2023/03/30 04:33:20;;;;;;;;;;;6.00;99.90;;;;;;5015977;28;19912;-80
2023/03/30 04:38:44;;;;;;;;;;;5.90;99.90;;;;;;5019598;28;20461;-80
2023/03/30 04:41:17;;;;;;;;;;;5.90;99.90;;;;;;5016612;28;19971;-80
2023/03/30 04:43:47;;;;;;;;;;;5.90;99.90;;;;;;5026000;28;19918;-80
2023/03/30 04:46:15;;;;;;;;;;;5.90;99.90;;;;;;5020243;28;19909;-80
2023/03/30 04:48:42;;;;;;;;;;;5.90;99.90;;;;;;5026081;28;19909;-79
2023/03/30 04:51:10;;;;;;;;;;;5.80;99.90;;;;;;5021696;28;19992;-80
2023/03/30 04:54:03;;;;;;;;;;;5.80;99.90;;;;;;5009656;28;19906;-80
2023/03/30 04:57:21;;;;;;;;;;;5.80;99.90;;;;;;5001779;28;19913;-81
2023/03/30 05:02:15;;;;;;;;;;;5.80;99.90;;;;;;5019827;28;19905;-80
2023/03/30 05:04:42;;;;;;;;;;;5.80;99.90;;;;;;5021204;28;19910;-81
2023/03/30 05:07:36;;;;;;;;;;;5.80;99.90;;;;;;4994736;28;20424;-81
2023/03/30 05:10:06;;;;;;;;;;;5.80;99.90;;;;;;5001489;28;19972;-80
2023/03/30 05:12:43;;;;;;;;;;;5.80;99.90;;;;;;5003781;28;20317;-82
2023/03/30 05:15:09;;;;;;;;;;;5.90;99.90;;;;;;5023915;28;20283;-82
2023/03/30 05:17:56;;;;;;;;;;;5.90;99.90;;;;;;5022565;28;20324;-82
2023/03/30 05:20:27;;;;;;;;;;;6.00;99.90;;;;;;5009212;28;20465;-78
2023/03/30 05:23:18;;;;;;;;;;;6.00;99.90;;;;;;5006271;28;19904;-79
2023/03/30 05:29:09;;;;;;;;;;;6.10;99.90;;;;;;5029772;28;19966;-78
2023/03/30 05:31:39;;;;;;;;;;;6.10;99.90;;;;;;5008856;28;19997;-80
2023/03/30 05:34:19;;;;;;;;;;;6.10;99.90;;;;;;4998036;28;19908;-80
2023/03/30 05:37:06;;;;;;;;;;;6.20;99.90;;;;;;5014049;28;19913;-78
2023/03/30 05:39:35;;;;;;;;;;;6.30;99.90;;;;;;5010221;28;19956;-80
2023/03/30 05:42:13;;;;;;;;;;;6.30;99.90;;;;;;5026668;28;19940;-80
2023/03/30 05:45:12;;;;;;;;;;;6.30;99.90;;;;;;4998956;28;20000;-80
2023/03/30 05:47:48;;;;;;;;;;;6.20;99.90;;;;;;5005522;28;19924;-80
2023/03/30 05:54:02;;;;;;;;;;;6.40;99.90;;;;;;5015758;28;20501;-80
2023/03/30 05:59:21;;;;;;;;;;;6.70;99.90;;;;;;5018875;28;19996;-80
2023/03/30 06:01:50;;;;;;;;;;;7.30;99.90;;;;;;5003615;28;20354;-80
2023/03/30 06:04:16;;;;;;;;;;;8.20;99.90;;;;;;5000388;28;19913;-80
2023/03/30 06:06:42;;;;;;;;;;;9.00;99.90;;;;;;5016093;28;19952;-80
2023/03/30 06:09:11;;;;;;;;;;;9.20;99.90;;;;;;4995968;28;20315;-79
2023/03/30 06:11:37;;;;;;;;;;;8.90;99.90;;;;;;5009776;28;19984;-79
2023/03/30 06:14:03;;;;;;;;;;;8.60;99.90;;;;;;5000426;28;19996;-80
2023/03/30 06:16:35;;;;;;;;;;;8.40;99.90;;;;;;5015135;28;19911;-80
2023/03/30 06:19:04;;;;;;;;;;;8.20;99.90;;;;;;5007705;28;19904;-79
2023/03/30 06:21:31;;;;;;;;;;;8.10;99.90;;;;;;4991182;28;20343;-82
2023/03/30 06:23:56;;;;;;;;;;;8.10;99.90;;;;;;5010163;28;20055;-80
2023/03/30 06:26:22;;;;;;;;;;;8.20;99.90;;;;;;5013331;28;20005;-81
2023/03/30 06:28:59;;;;;;;;;;;8.40;99.90;;;;;;4993893;28;19912;-80
2023/03/30 06:31:25;;;;;;;;;;;8.50;99.90;;;;;;5018094;28;19913;-81
2023/03/30 06:33:51;;;;;;;;;;;8.60;99.90;;;;;;4992888;28;20256;-81
2023/03/30 06:36:18;;;;;;;;;;;8.60;99.90;;;;;;5012692;28;19948;-80
2023/03/30 06:38:49;;;;;;;;;;;8.50;99.90;;;;;;4993271;28;19912;-81
2023/03/30 06:41:15;;;;;;;;;;;8.60;99.90;;;;;;5000476;28;20339;-80
2023/03/30 06:43:40;;;;;;;;;;;8.60;99.90;;;;;;5014170;28;19917;-79
2023/03/30 06:46:08;;;;;;;;;;;8.50;99.90;;;;;;5000368;28;20367;-80
2023/03/30 06:48:34;;;;;;;;;;;8.70;99.90;;;;;;5028087;28;19932;-80
2023/03/30 06:51:01;;;;;;;;;;;8.90;99.90;;;;;;5005873;28;20572;-80
2023/03/30 06:53:31;;;;;;;;;;;9.00;99.90;;;;;;5007966;28;19967;-80
2023/03/30 06:56:01;;;;;;;;;;;8.90;99.90;;;;;;4999915;28;20405;-80
2023/03/30 06:58:33;;;;;;;;;;;9.00;99.90;;;;;;5004682;28;19955;-81
2023/03/30 07:01:11;;;;;;;;;;;9.10;99.90;;;;;;5007418;28;19913;-81
2023/03/30 07:03:37;;;;;;;;;;;9.30;99.90;;;;;;5027963;28;20397;-81
2023/03/30 07:06:03;;;;;;;;;;;9.60;99.90;;;;;;5014069;28;19909;-81
2023/03/30 07:08:30;;;;;;;;;;;9.80;99.90;;;;;;5025017;28;19909;-82
2023/03/30 07:11:02;;;;;;;;;;;10.10;99.90;;;;;;5019056;28;19912;-81
2023/03/30 07:13:28;;;;;;;;;;;10.20;99.90;;;;;;5013082;28;20274;-82
2023/03/30 07:15:55;;;;;;;;;;;10.40;99.90;;;;;;5018219;28;19913;-81
2023/03/30 07:18:21;;;;;;;;;;;10.20;99.90;;;;;;5010552;28;19999;-82
2023/03/30 07:20:47;;;;;;;;;;;10.50;99.90;;;;;;5004858;28;19908;-81
2023/03/30 07:23:13;;;;;;;;;;;10.60;99.90;;;;;;4993595;28;19927;-82
2023/03/30 07:25:40;;;;;;;;;;;10.40;99.90;;;;;;5013925;28;19909;-81
2023/03/30 07:28:05;;;;;;;;;;;10.10;99.90;;;;;;5003866;28;20401;-81
2023/03/30 07:30:33;;;;;;;;;;;9.90;99.90;;;;;;5021106;28;19905;-81
2023/03/30 07:32:58;;;;;;;;;;;9.70;99.90;;;;;;4998226;28;19909;-81
2023/03/30 07:35:26;;;;;;;;;;;9.60;99.90;;;;;;5018298;28;21361;-80
2023/03/30 07:37:53;;;;;;;;;;;9.70;99.90;;;;;;5015213;28;20245;-81
2023/03/30 07:40:20;;;;;;;;;;;10.00;99.90;;;;;;5011972;28;20417;-81
2023/03/30 07:42:46;;;;;;;;;;;10.10;99.90;;;;;;5010860;28;19935;-81
2023/03/30 07:45:19;;;;;;;;;;;10.70;99.90;;;;;;5016179;28;19917;-81
2023/03/30 07:47:46;;;;;;;;;;;11.10;99.90;;;;;;4997626;28;19916;-81
2023/03/30 07:50:12;;;;;;;;;;;11.30;99.90;;;;;;5016914;28;19905;-81
2023/03/30 07:52:39;;;;;;;;;;;11.40;99.90;;;;;;5015486;28;20371;-81
2023/03/30 07:55:06;;;;;;;;;;;11.30;99.90;;;;;;5009905;28;19943;-81
2023/03/30 07:57:32;;;;;;;;;;;12.00;99.90;;;;;;5008967;28;20285;-82
2023/03/30 08:00:04;;;;;;;;;;;14.60;99.90;;;;;;4996329;28;19905;-82
2023/03/30 08:02:29;;;;;;;;;;;17.50;97.40;;;;;;5013819;28;20452;-82
2023/03/30 08:04:59;;;;;;;;;;;19.00;90.70;;;;;;5002281;28;19917;-83
2023/03/30 08:07:31;;;;;;;;;;;20.90;81.70;;;;;;4989891;28;19971;-80
2023/03/30 08:09:58;;;;;;;;;;;22.30;74.70;;;;;;5023453;28;19913;-81
2023/03/30 08:12:24;;;;;;;;;;;22.50;69.90;;;;;;5014125;28;20701;-81
2023/03/30 08:14:50;;;;;;;;;;;22.20;69.20;;;;;;5021755;28;19909;-82
2023/03/30 08:17:18;;;;;;;;;;;21.50;70.90;;;;;;5013182;28;20342;-81
2023/03/30 08:19:43;;;;;;;;;;;20.20;72.20;;;;;;5022563;28;19956;-80
2023/03/30 08:22:11;;;;;;;;;;;19.20;74.20;;;;;;5021708;28;19940;-81
2023/03/30 08:24:36;;;;;;;;;;;17.30;82.30;;;;;;5010986;28;20002;-81
2023/03/30 08:27:03;;;;;;;;;;;15.60;88.40;;;;;;5020388;28;20644;-81
2023/03/30 08:29:30;;;;;;;;;;;14.80;94.00;;;;;;5020168;28;19953;-81
2023/03/30 08:31:56;;;;;;;;;;;14.40;97.50;;;;;;5013677;28;19913;-81
2023/03/30 08:34:24;;;;;;;;;;;14.10;99.70;;;;;;5021908;28;19914;-81
2023/03/30 08:36:56;;;;;;;;;;;13.90;99.90;;;;;;5010675;28;19913;-80
2023/03/30 08:39:25;;;;;;;;;;;13.40;99.90;;;;;;4997325;28;20263;-81
2023/03/30 08:42:01;;;;;;;;;;;13.70;99.90;;;;;;5005087;28;19955;-81
2023/03/30 08:44:30;;;;;;;;;;;13.90;99.90;;;;;;5014011;28;20362;-80
2023/03/30 08:46:56;;;;;;;;;;;14.30;99.90;;;;;;4997202;28;19919;-81
2023/03/30 08:49:21;;;;;;;;;;;14.90;99.90;;;;;;5024174;28;19908;-81
2023/03/30 08:51:49;;;;;;;;;;;15.10;99.00;;;;;;5003726;28;20377;-80
2023/03/30 08:54:18;;;;;;;;;;;15.90;98.80;;;;;;5010095;28;19909;-81
2023/03/30 08:56:56;;;;;;;;;;;16.40;97.70;;;;;;5010920;28;19932;-81
2023/03/30 08:59:28;;;;;;;;;;;18.30;93.50;;;;;;5018060;28;19999;-83
2023/03/30 09:01:58;;;;;;;;;;;20.40;87.40;;;;;;5006415;28;19909;-84
2023/03/30 09:04:48;;;;;;;;;;;23.50;74.30;;;;;;5004851;28;20050;-80
2023/03/30 09:07:17;;;;;;;;;;;24.80;66.40;;;;;;4994417;28;19913;-80
2023/03/30 09:09:44;;;;;;;;;;;24.80;62.90;;;;;;5019803;28;20350;-80
2023/03/30 09:12:37;;;;;;;;;;;25.10;61.60;;;;;;5019624;28;20305;-77
2023/03/30 09:15:16;;;;;;;;;;;25.50;61.00;;;;;;5014835;28;19905;-78
2023/03/30 09:17:50;;;;;;;;;;;23.40;60.70;;;;;;5013870;28;19951;-81
2023/03/30 09:20:29;;;;;;;;;;;21.70;64.90;;;;;;5018394;28;19906;-81
2023/03/30 09:22:59;;;;;;;;;;;19.70;67.60;;;;;;5010231;28;19919;-80
2023/03/30 09:25:32;;;;;;;;;;;18.70;71.20;;;;;;5019465;28;19916;-78
2023/03/30 09:28:07;;;;;;;;;;;17.40;74.20;;;;;;5008239;28;20302;-78
2023/03/30 09:30:54;;;;;;;;;;;17.40;77.90;;;;;;5004590;28;19905;-78
2023/03/30 09:33:27;;;;;;;;;;;16.90;81.10;;;;;;5018827;28;19905;-80
2023/03/30 09:36:09;;;;;;;;;;;16.40;85.60;;;;;;5014968;28;19925;-80
2023/03/30 09:38:40;;;;;;;;;;;15.70;88.10;;;;;;5017053;28;19906;-80
2023/03/30 09:44:01;;;;;;;;;;;15.10;93.00;;;;;;5026972;28;19908;-80
2023/03/30 09:46:36;;;;;;;;;;;14.50;95.60;;;;;;5024036;28;19919;-80
2023/03/30 09:49:13;;;;;;;;;;;14.30;97.90;;;;;;5013698;28;20003;-80
2023/03/30 09:51:53;;;;;;;;;;;13.90;99.10;;;;;;5001172;28;20346;-81
2023/03/30 09:54:20;;;;;;;;;;;13.70;99.90;;;;;;4994693;28;19908;-80
2023/03/30 09:56:50;;;;;;;;;;;13.60;99.90;;;;;;4999189;28;19912;-80
2023/03/30 09:59:35;;;;;;;;;;;13.40;99.90;;;;;;5029372;28;19909;-80
2023/03/30 10:02:29;;;;;;;;;;;13.40;99.90;;;;;;5006590;28;20255;-80
2023/03/30 10:05:01;;;;;;;;;;;13.20;99.90;;;;;;5006326;28;19916;-80
2023/03/30 10:07:38;;;;;;;;;;;13.30;99.90;;;;;;5010205;28;19920;-81
2023/03/30 10:10:19;;;;;;;;;;;13.30;99.90;;;;;;4998981;28;19905;-80
2023/03/30 10:12:48;;;;;;;;;;;13.20;99.90;;;;;;5007559;28;19954;-79
2023/03/30 10:15:20;;;;;;;;;;;13.50;99.90;;;;;;5000985;28;19909;-80
2023/03/30 10:17:55;;;;;;;;;;;13.30;99.90;;;;;;5019700;28;19905;-80
2023/03/30 10:20:35;;;;;;;;;;;13.30;99.90;;;;;;5015263;28;19930;-81
2023/03/30 10:23:19;;;;;;;;;;;12.90;99.90;;;;;;5006851;28;19905;-80
2023/03/30 10:25:48;;;;;;;;;;;12.90;99.90;;;;;;5011508;28;19909;-80
2023/03/30 10:28:29;;;;;;;;;;;13.00;99.90;;;;;;5012203;28;19905;-81
2023/03/30 10:31:06;;;;;;;;;;;13.30;99.90;;;;;;5011978;28;19975;-80
2023/03/30 10:33:37;;;;;;;;;;;13.30;99.90;;;;;;5013362;28;19909;-80
2023/03/30 10:36:02;;;;;;;;;;;13.60;99.90;;;;;;5015704;28;20397;-80
2023/03/30 10:38:38;;;;;;;;;;;13.50;99.90;;;;;;4999121;28;19921;-80
2023/03/30 10:41:21;;;;;;;;;;;13.40;99.90;;;;;;5021988;28;19960;-80
2023/03/30 10:44:03;;;;;;;;;;;13.40;99.90;;;;;;5018845;28;19920;-80
2023/03/30 10:46:33;;;;;;;;;;;13.30;99.90;;;;;;5014323;28;19970;-80
2023/03/30 10:49:16;;;;;;;;;;;13.50;99.90;;;;;;4999972;28;19920;-80
2023/03/30 10:51:45;;;;;;;;;;;13.50;99.90;;;;;;5016281;28;20416;-80
2023/03/30 10:54:28;;;;;;;;;;;13.40;99.90;;;;;;5003521;28;20297;-80
2023/03/30 10:56:56;;;;;;;;;;;13.40;99.90;;;;;;5005930;28;19905;-80
2023/03/30 10:59:25;;;;;;;;;;;13.40;99.90;;;;;;5017071;28;19904;-80
2023/03/30 11:02:05;;;;;;;;;;;13.30;99.90;;;;;;5009032;28;19908;-80
2023/03/30 11:04:43;;;;;;;;;;;13.30;99.90;;;;;;5017469;28;19909;-80
2023/03/30 11:07:15;;;;;;;;;;;13.00;99.90;;;;;;5020692;28;19921;-80
2023/03/30 11:09:44;;;;;;;;;;;13.20;99.90;;;;;;5012803;28;19905;-80
2023/03/30 11:12:18;;;;;;;;;;;13.20;99.90;;;;;;5021885;28;19904;-79
2023/03/30 11:14:52;;;;;;;;;;;13.20;99.90;;;;;;5002737;28;19951;-79
2023/03/30 11:17:18;;;;;;;;;;;13.10;99.90;;;;;;5016749;28;19912;-80
2023/03/30 11:20:08;;;;;;;;;;;13.20;99.90;;;;;;5011706;28;19905;-80
2023/03/30 11:22:40;;;;;;;;;;;12.90;99.90;;;;;;4996889;28;19906;-80
2023/03/30 11:25:16;;;;;;;;;;;12.80;99.90;;;;;;5010604;28;20005;-79
2023/03/30 11:27:50;;;;;;;;;;;12.70;99.90;;;;;;4990532;28;20351;-80
2023/03/30 11:30:21;;;;;;;;;;;12.70;99.90;;;;;;4996334;28;20289;-80
2023/03/30 11:33:08;;;;;;;;;;;12.60;99.90;;;;;;5006516;28;20259;-81
2023/03/30 11:35:55;;;;;;;;;;;12.70;99.90;;;;;;5014566;28;19916;-80
2023/03/30 11:38:28;;;;;;;;;;;12.70;99.90;;;;;;4996628;28;19912;-80
2023/03/30 11:40:54;;;;;;;;;;;12.70;99.90;;;;;;5012783;28;19996;-80
2023/03/30 11:43:28;;;;;;;;;;;12.70;99.90;;;;;;5005204;28;19905;-81
2023/03/30 11:46:08;;;;;;;;;;;12.70;99.90;;;;;;4994108;28;19953;-80
2023/03/30 11:48:54;;;;;;;;;;;12.70;99.90;;;;;;5016916;28;20534;-80
2023/03/30 11:54:37;;;;;;;;;;;13.10;99.90;;;;;;5008400;28;19997;-80
2023/03/30 11:57:06;;;;;;;;;;;13.40;99.90;;;;;;4994761;28;19909;-80
2023/03/30 11:59:51;;;;;;;;;;;13.40;99.90;;;;;;5006112;28;19940;-80
2023/03/30 12:02:30;;;;;;;;;;;13.90;99.90;;;;;;5017352;28;19916;-81
2023/03/30 12:05:11;;;;;;;;;;;14.40;99.90;;;;;;5024067;28;21567;-80
2023/03/30 12:07:52;;;;;;;;;;;14.80;99.90;;;;;;5002230;28;19913;-79
2023/03/30 12:10:33;;;;;;;;;;;14.40;99.90;;;;;;5020488;28;19987;-80
2023/03/30 12:13:02;;;;;;;;;;;14.50;99.90;;;;;;4991419;28;19915;-80
2023/03/30 12:15:42;;;;;;;;;;;14.80;99.90;;;;;;5010329;28;19906;-80
2023/03/30 12:18:07;;;;;;;;;;;14.90;99.90;;;;;;5025167;28;20351;-80
2023/03/30 12:20:40;;;;;;;;;;;15.00;99.90;;;;;;5006570;28;19916;-81
2023/03/30 12:23:31;;;;;;;;;;;15.20;99.90;;;;;;4997972;28;19931;-79
2023/03/30 12:26:06;;;;;;;;;;;15.40;99.90;;;;;;4973812;28;19916;-80
2023/03/30 12:28:58;;;;;;;;;;;15.10;99.90;;;;;;5013875;28;19909;-80
2023/03/30 12:31:44;;;;;;;;;;;15.00;99.90;;;;;;4988780;28;20399;-80
2023/03/30 12:34:10;;;;;;;;;;;15.00;99.90;;;;;;5001399;28;19985;-80
2023/03/30 12:36:56;;;;;;;;;;;15.00;99.90;;;;;;4993242;28;19996;-81
2023/03/30 12:39:47;;;;;;;;;;;14.80;99.90;;;;;;5001911;28;19912;-80
2023/03/30 12:42:37;;;;;;;;;;;14.80;99.90;;;;;;4993513;28;19999;-80
2023/03/30 12:45:22;;;;;;;;;;;14.40;99.90;;;;;;5020745;28;19914;-80
2023/03/30 12:47:58;;;;;;;;;;;14.50;99.90;;;;;;5018212;28;19909;-80
2023/03/30 12:50:44;;;;;;;;;;;13.90;99.90;;;;;;5005856;28;19905;-80
2023/03/30 12:53:28;;;;;;;;;;;13.70;99.90;;;;;;5006986;28;20317;-80
2023/03/30 12:56:21;;;;;;;;;;;13.30;99.90;;;;;;5002662;28;20792;-80
2023/03/30 12:59:05;;;;;;;;;;;12.90;99.90;;;;;;5019460;28;19997;-80
2023/03/30 13:01:50;;;;;;;;;;;12.50;99.90;;;;;;5008625;28;19905;-80
2023/03/30 13:04:20;;;;;;;;;;;12.10;99.90;;;;;;5015195;28;20019;-80
2023/03/30 13:06:50;;;;;;;;;;;11.90;99.90;;;;;;5024722;28;20289;-80
2023/03/30 13:09:21;;;;;;;;;;;11.80;99.90;;;;;;5005697;28;19964;-80
2023/03/30 13:11:52;;;;;;;;;;;11.90;99.90;;;;;;5011394;28;19955;-80
2023/03/30 13:14:26;;;;;;;;;;;12.00;99.90;;;;;;4999124;28;19909;-81
2023/03/30 13:20:04;;;;;;;;;;;12.20;99.90;;;;;;5015714;28;19914;-78
2023/03/30 13:22:31;;;;;;;;;;;12.20;99.90;;;;;;5031444;28;19988;-80
2023/03/30 13:25:21;;;;;;;;;;;12.20;99.90;;;;;;4993031;28;20003;-79
2023/03/30 13:27:49;;;;;;;;;;;12.30;99.90;;;;;;5018101;28;19905;-80
2023/03/30 13:30:20;;;;;;;;;;;12.50;99.90;;;;;;5009351;28;19916;-79
2023/03/30 13:32:57;;;;;;;;;;;12.30;99.90;;;;;;4995690;28;19928;-78
2023/03/30 13:35:36;;;;;;;;;;;12.40;99.90;;;;;;5016621;28;19913;-79
2023/03/30 13:38:17;;;;;;;;;;;12.30;99.90;;;;;;5015334;28;19948;-80
2023/03/30 13:40:51;;;;;;;;;;;12.30;99.90;;;;;;4999650;28;19913;-80
2023/03/30 13:43:37;;;;;;;;;;;12.20;99.90;;;;;;5007496;28;19948;-80
2023/03/30 13:46:19;;;;;;;;;;;12.10;99.90;;;;;;5020017;28;20040;-80
2023/03/30 13:49:03;;;;;;;;;;;12.00;99.90;;;;;;5023087;28;20342;-81
2023/03/30 13:51:35;;;;;;;;;;;11.80;99.90;;;;;;5004430;28;19905;-80
2023/03/30 13:54:05;;;;;;;;;;;11.60;99.90;;;;;;5022719;28;19905;-81
2023/03/30 13:56:38;;;;;;;;;;;11.60;99.90;;;;;;5006377;28;20382;-80
2023/03/30 13:59:16;;;;;;;;;;;11.60;99.90;;;;;;5026169;28;19905;-80
2023/03/30 14:01:51;;;;;;;;;;;11.50;99.90;;;;;;5019857;28;19909;-81
2023/03/30 14:04:19;;;;;;;;;;;11.50;99.90;;;;;;5011205;28;19909;-78
2023/03/30 14:06:48;;;;;;;;;;;11.60;99.90;;;;;;5002413;28;19928;-81
2023/03/30 14:09:24;;;;;;;;;;;11.60;99.90;;;;;;5002875;28;19916;-79
2023/03/30 14:12:03;;;;;;;;;;;11.70;99.90;;;;;;5018901;28;19915;-78
2023/03/30 14:14:36;;;;;;;;;;;11.80;99.90;;;;;;5002722;28;19919;-78
2023/03/30 14:17:10;;;;;;;;;;;11.80;99.90;;;;;;5024678;28;20354;-81
2023/03/30 14:19:50;;;;;;;;;;;11.80;99.90;;;;;;5007930;28;19928;-79
2023/03/30 14:22:26;;;;;;;;;;;11.80;99.90;;;;;;5029390;28;19909;-79
2023/03/30 14:25:04;;;;;;;;;;;11.80;99.90;;;;;;5018231;28;19912;-81
2023/03/30 14:27:47;;;;;;;;;;;11.80;99.90;;;;;;5006134;28;19913;-80
2023/03/30 14:30:21;;;;;;;;;;;11.80;99.90;;;;;;4991294;28;20032;-78
2023/03/30 14:32:46;;;;;;;;;;;11.90;99.90;;;;;;5016385;28;19929;-79
2023/03/30 14:35:17;;;;;;;;;;;11.90;99.90;;;;;;5022060;28;19906;-79
2023/03/30 14:37:43;;;;;;;;;;;12.00;99.90;;;;;;5018735;28;20347;-79
2023/03/30 14:40:21;;;;;;;;;;;12.00;99.90;;;;;;5014808;28;19912;-79
2023/03/30 14:42:46;;;;;;;;;;;12.00;99.90;;;;;;5004916;28;19939;-80
2023/03/30 14:45:17;;;;;;;;;;;12.10;99.90;;;;;;4997416;28;19960;-80
2023/03/30 14:47:45;;;;;;;;;;;12.10;99.90;;;;;;5001753;28;19916;-79
2023/03/30 14:50:12;;;;;;;;;;;12.10;99.90;;;;;;5023659;28;19912;-79
2023/03/30 14:52:46;;;;;;;;;;;12.30;99.90;;;;;;5016680;28;19905;-78
2023/03/30 14:55:21;;;;;;;;;;;12.50;99.90;;;;;;5016872;28;19905;-80
2023/03/30 14:57:48;;;;;;;;;;;12.50;99.90;;;;;;5016037;28;20382;-79
2023/03/30 15:00:17;;;;;;;;;;;12.60;99.90;;;;;;5008540;28;19978;-78
2023/03/30 15:02:44;;;;;;;;;;;12.60;99.90;;;;;;5007815;28;20568;-78
2023/03/30 15:05:15;;;;;;;;;;;12.70;99.90;;;;;;5029169;28;20290;-77
2023/03/30 15:07:45;;;;;;;;;;;12.70;99.90;;;;;;5019231;28;20516;-78
2023/03/30 15:13:02;;;;;;;;;;;12.40;99.90;;;;;;5015487;28;19904;-78
2023/03/30 15:15:30;;;;;;;;;;;12.30;99.90;;;;;;5022106;28;19959;-78
2023/03/30 15:17:58;;;;;;;;;;;12.30;99.90;;;;;;5002112;28;19919;-78
2023/03/30 15:20:30;;;;;;;;;;;12.30;99.90;;;;;;4999973;28;20187;-78
2023/03/30 15:22:58;;;;;;;;;;;12.20;99.90;;;;;;4999307;28;20530;-78
2023/03/30 15:25:30;;;;;;;;;;;12.20;99.90;;;;;;5004026;28;19916;-78
2023/03/30 15:28:12;;;;;;;;;;;12.10;99.90;;;;;;5018579;28;19913;-78
2023/03/30 15:30:38;;;;;;;;;;;12.00;99.90;;;;;;5017603;28;19912;-78
2023/03/30 15:33:06;;;;;;;;;;;11.80;99.90;;;;;;5004535;28;19916;-78
2023/03/30 15:35:35;;;;;;;;;;;11.70;99.90;;;;;;4999407;28;19988;-78
2023/03/30 15:38:24;;;;;;;;;;;11.60;99.90;;;;;;5004088;28;19916;-79
2023/03/30 15:40:50;;;;;;;;;;;11.50;99.90;;;;;;5012536;28;19905;-79
2023/03/30 15:43:19;;;;;;;;;;;11.60;99.90;;;;;;5023664;28;20269;-78
2023/03/30 15:45:49;;;;;;;;;;;11.60;99.90;;;;;;5004737;28;19915;-78
2023/03/30 15:48:21;;;;;;;;;;;11.60;99.90;;;;;;5014125;28;19905;-78
2023/03/30 15:51:01;;;;;;;;;;;11.60;99.90;;;;;;5003499;28;20366;-78
2023/03/30 15:53:34;;;;;;;;;;;11.60;99.90;;;;;;5009700;28;19967;-79
2023/03/30 15:56:03;;;;;;;;;;;11.60;99.90;;;;;;5012905;28;19912;-78
2023/03/30 15:58:31;;;;;;;;;;;11.60;99.90;;;;;;4998597;28;19963;-78
2023/03/30 16:01:01;;;;;;;;;;;11.70;99.90;;;;;;5016879;28;19921;-77
2023/03/30 16:03:31;;;;;;;;;;;11.60;99.90;;;;;;5006509;28;19913;-80
2023/03/30 16:05:59;;;;;;;;;;;11.70;99.90;;;;;;4987806;28;19924;-79
2023/03/30 16:08:26;;;;;;;;;;;11.70;99.90;;;;;;5008912;28;20004;-79
2023/03/30 16:10:55;;;;;;;;;;;11.60;99.90;;;;;;5011280;28;19996;-78
2023/03/30 16:13:22;;;;;;;;;;;11.50;99.90;;;;;;5015509;28;19912;-78
2023/03/30 16:15:53;;;;;;;;;;;11.50;99.90;;;;;;4991483;28;20018;-78
2023/03/30 16:18:18;;;;;;;;;;;11.60;99.90;;;;;;5001042;28;19917;-74
2023/03/30 16:20:44;;;;;;;;;;;11.70;99.90;;;;;;5012455;28;19909;-73
2023/03/30 16:23:09;;;;;;;;;;;11.80;99.90;;;;;;5011609;28;19905;-78
2023/03/30 16:25:36;;;;;;;;;;;11.90;99.90;;;;;;5000516;28;20385;-79
2023/03/30 16:28:05;;;;;;;;;;;12.00;99.90;;;;;;4997902;28;19913;-79
2023/03/30 16:30:33;;;;;;;;;;;12.00;99.90;;;;;;4991934;28;19905;-78
2023/03/30 16:33:04;;;;;;;;;;;12.10;99.90;;;;;;5000800;28;19913;-78
2023/03/30 16:35:33;;;;;;;;;;;12.20;99.90;;;;;;5014094;28;19905;-79
2023/03/30 16:37:59;;;;;;;;;;;12.20;99.90;;;;;;4991740;28;19917;-80
2023/03/30 16:40:34;;;;;;;;;;;12.20;99.90;;;;;;5016940;28;19912;-80
2023/03/30 16:43:06;;;;;;;;;;;12.30;99.90;;;;;;5008232;28;19955;-79
2023/03/30 16:45:32;;;;;;;;;;;12.30;99.90;;;;;;4996813;28;20044;-79
2023/03/30 16:47:58;;;;;;;;;;;12.30;99.90;;;;;;4999879;28;20320;-79
2023/03/30 16:50:49;;;;;;;;;;;12.30;99.90;;;;;;5003738;28;20039;-79
2023/03/30 16:53:21;;;;;;;;;;;12.30;99.90;;;;;;5014050;28;19909;-79
2023/03/30 16:55:48;;;;;;;;;;;12.40;99.90;;;;;;5019077;28;19909;-79
2023/03/30 16:58:15;;;;;;;;;;;12.30;99.90;;;;;;5013473;28;19909;-78
2023/03/30 17:00:45;;;;;;;;;;;12.30;99.90;;;;;;5016873;28;19905;-78
2023/03/30 17:03:12;;;;;;;;;;;12.40;99.90;;;;;;4992729;28;19905;-79
2023/03/30 17:05:38;;;;;;;;;;;12.40;99.90;;;;;;5001762;28;20274;-79
2023/03/30 17:08:19;;;;;;;;;;;12.50;99.90;;;;;;5004036;28;19910;-79
2023/03/30 17:10:46;;;;;;;;;;;12.30;99.90;;;;;;5001321;28;19913;-79
2023/03/30 17:13:13;;;;;;;;;;;12.40;99.90;;;;;;5012716;28;19905;-78
2023/03/30 17:15:41;;;;;;;;;;;12.40;99.90;;;;;;4996191;28;20493;-79
2023/03/30 17:18:14;;;;;;;;;;;12.40;99.90;;;;;;5024840;28;19936;-78
2023/03/30 17:20:46;;;;;;;;;;;12.40;99.90;;;;;;5018537;28;19906;-78